Time;durP1;ratioP1;P1;durP2;ratioP2;P2;SDS_P1;SDS_P2;PMS_P1;PMS_P2;Temp;Humidity;BMP_temperature;BMP_pressure;BME280_temperature;BME280_humidity;BME280_pressure;Samples;Min_cycle;Max_cycle;Signal;HPM_P1;HPM_P2
2022/05/24 00:01:26;;;;;;;1.55;0.90;;;15.90;99.90;;;;;;5036838;28;20036;-80
2022/05/24 00:03:52;;;;;;;1.63;0.73;;;15.90;99.90;;;;;;5017997;28;20033;-81
2022/05/24 00:06:18;;;;;;;2.42;1.05;;;15.90;99.90;;;;;;5039933;28;20120;-80
2022/05/24 00:08:44;;;;;;;2.75;1.00;;;15.90;99.90;;;;;;5034840;28;20084;-80
2022/05/24 00:11:10;;;;;;;2.45;1.17;;;15.90;99.90;;;;;;5035556;28;20104;-80
2022/05/24 00:13:36;;;;;;;2.30;1.15;;;15.90;99.90;;;;;;5036990;28;20559;-82
2022/05/24 00:16:03;;;;;;;2.58;1.00;;;15.90;99.90;;;;;;5036101;28;20022;-80
2022/05/24 00:18:30;;;;;;;2.08;1.02;;;15.90;99.90;;;;;;5037046;28;20017;-79
2022/05/24 00:20:59;;;;;;;1.40;1.08;;;15.90;99.90;;;;;;5036144;28;20885;-78
2022/05/24 00:23:26;;;;;;;1.73;1.30;;;15.90;99.90;;;;;;5034054;28;20099;-79
2022/05/24 00:25:55;;;;;;;2.95;1.13;;;15.90;99.90;;;;;;5035632;28;20124;-81
2022/05/24 00:28:25;;;;;;;2.15;1.50;;;15.80;99.90;;;;;;5035459;28;20037;-79
2022/05/24 00:30:51;;;;;;;1.55;1.17;;;15.80;99.90;;;;;;5036119;28;20405;-80
2022/05/24 00:33:18;;;;;;;2.13;1.35;;;15.80;99.90;;;;;;5035179;28;20048;-81
2022/05/24 00:35:45;;;;;;;2.70;1.20;;;15.80;99.90;;;;;;5037102;28;20467;-80
2022/05/24 00:38:20;;;;;;;1.73;1.02;;;15.80;99.90;;;;;;5017477;28;20029;-81
2022/05/24 00:40:45;;;;;;;1.60;1.35;;;15.90;99.90;;;;;;5018795;28;20022;-79
2022/05/24 00:43:30;;;;;;;1.65;1.25;;;15.80;99.90;;;;;;5035361;28;20026;-80
2022/05/24 00:46:03;;;;;;;1.83;1.10;;;15.90;99.90;;;;;;5036101;28;20413;-80
2022/05/24 00:48:33;;;;;;;3.03;1.20;;;15.80;99.90;;;;;;5034963;28;20033;-80
2022/05/24 00:51:01;;;;;;;1.73;1.27;;;15.80;99.90;;;;;;5035669;28;20536;-80
2022/05/24 00:53:37;;;;;;;3.13;1.85;;;15.90;99.90;;;;;;5033568;28;20030;-80
2022/05/24 00:56:19;;;;;;;1.80;1.40;;;15.90;99.90;;;;;;5035764;28;20021;-82
2022/05/24 00:58:51;;;;;;;5.90;1.45;;;15.90;99.90;;;;;;5036013;28;20104;-80
2022/05/24 01:01:38;;;;;;;3.83;1.60;;;15.90;99.90;;;;;;5035475;28;20471;-80
2022/05/24 01:04:06;;;;;;;1.80;1.50;;;15.90;99.90;;;;;;5034938;28;20032;-80
2022/05/24 01:06:33;;;;;;;2.22;1.67;;;15.90;99.90;;;;;;5036981;28;20029;-79
2022/05/24 01:09:03;;;;;;;2.28;1.38;;;15.90;99.90;;;;;;5033800;28;20147;-79
2022/05/24 01:11:32;;;;;;;1.90;1.75;;;15.90;99.90;;;;;;5033871;28;20108;-81
2022/05/24 01:14:00;;;;;;;2.60;1.50;;;15.90;99.90;;;;;;5028686;28;20104;-79
2022/05/24 01:16:25;;;;;;;2.28;1.50;;;15.90;99.90;;;;;;5032443;28;20031;-80
2022/05/24 01:18:51;;;;;;;3.53;1.73;;;15.90;99.90;;;;;;5034198;28;20036;-80
2022/05/24 01:21:17;;;;;;;4.13;1.92;;;15.90;99.90;;;;;;5036129;28;20090;-80
2022/05/24 01:23:57;;;;;;;3.10;1.42;;;15.90;99.90;;;;;;5033855;28;20077;-80
2022/05/24 01:26:46;;;;;;;1.65;1.50;;;15.80;99.90;;;;;;5034799;28;20045;-80
2022/05/24 01:29:12;;;;;;;1.50;1.40;;;15.90;99.90;;;;;;5034369;28;20099;-80
2022/05/24 01:37:10;;;;;;;2.05;1.60;;;15.80;99.90;;;;;;5057818;28;20092;-83
2022/05/24 01:39:38;;;;;;;3.45;2.10;;;15.80;99.90;;;;;;5018199;28;20030;-79
2022/05/24 01:42:04;;;;;;;3.40;1.75;;;15.80;99.90;;;;;;5019288;28;20066;-80
2022/05/24 01:44:44;;;;;;;4.40;1.63;;;15.80;99.90;;;;;;5034834;28;20053;-81
2022/05/24 01:47:11;;;;;;;3.55;2.13;;;15.80;99.90;;;;;;5033544;28;20099;-80
2022/05/24 01:49:41;;;;;;;4.60;1.40;;;15.80;99.90;;;;;;5034771;28;20091;-80
2022/05/24 01:52:19;;;;;;;2.08;1.85;;;15.70;99.90;;;;;;5036537;28;20466;-80
2022/05/24 01:54:49;;;;;;;2.55;1.67;;;15.80;99.90;;;;;;5033920;28;20028;-80
2022/05/24 01:57:27;;;;;;;2.83;1.92;;;15.80;99.90;;;;;;5033381;28;20068;-80
2022/05/24 01:59:56;;;;;;;2.75;1.83;;;15.70;99.90;;;;;;5035586;28;20052;-81
2022/05/24 02:02:21;;;;;;;3.33;2.00;;;15.70;99.90;;;;;;5034777;28;20035;-81
2022/05/24 02:04:47;;;;;;;3.25;1.70;;;15.70;99.90;;;;;;5034701;28;20097;-81
2022/05/24 02:07:17;;;;;;;3.20;1.90;;;15.70;99.90;;;;;;5039674;28;20120;-81
2022/05/24 02:09:46;;;;;;;5.55;2.17;;;15.70;99.90;;;;;;5038120;28;20026;-80
2022/05/24 02:12:38;;;;;;;2.42;1.70;;;15.70;99.90;;;;;;5035980;28;20025;-79
2022/05/24 02:15:09;;;;;;;4.18;1.88;;;15.70;99.90;;;;;;5036647;28;20050;-80
2022/05/24 02:17:54;;;;;;;4.88;2.30;;;15.70;99.90;;;;;;5038130;28;20478;-81
2022/05/24 02:20:30;;;;;;;2.30;1.83;;;15.70;99.90;;;;;;5032301;28;20026;-80
2022/05/24 02:22:56;;;;;;;3.53;2.00;;;15.60;99.90;;;;;;5037134;28;20029;-79
2022/05/24 02:25:42;;;;;;;4.28;2.15;;;15.60;99.90;;;;;;5032026;28;20017;-80
2022/05/24 02:28:09;;;;;;;1.67;1.40;;;15.70;99.90;;;;;;5032297;28;20037;-80
2022/05/24 02:30:39;;;;;;;2.20;2.00;;;15.60;99.90;;;;;;5033569;28;20018;-79
2022/05/24 02:33:05;;;;;;;2.95;2.00;;;15.60;99.90;;;;;;5033270;28;20492;-80
2022/05/24 02:35:30;;;;;;;2.40;1.50;;;15.70;99.90;;;;;;5033730;28;20025;-79
2022/05/24 02:37:56;;;;;;;1.50;1.40;;;15.70;99.90;;;;;;5036647;28;20048;-80
2022/05/24 02:43:06;;;;;;;2.17;1.98;;;15.70;99.90;;;;;;5032684;28;20084;-79
2022/05/24 02:45:32;;;;;;;1.83;1.60;;;15.70;99.90;;;;;;5033360;28;20450;-80
2022/05/24 02:47:57;;;;;;;2.63;1.85;;;15.70;99.90;;;;;;5033168;28;20048;-80
2022/05/24 02:50:23;;;;;;;1.85;1.50;;;15.60;99.90;;;;;;5034608;28;20081;-78
2022/05/24 02:52:49;;;;;;;2.20;1.60;;;15.60;99.90;;;;;;5034640;28;20336;-80
2022/05/24 02:55:16;;;;;;;1.80;1.60;;;15.60;99.90;;;;;;5032603;28;20032;-80
2022/05/24 02:57:42;;;;;;;2.00;1.80;;;15.60;99.90;;;;;;5032208;28;20124;-81
2022/05/24 03:00:12;;;;;;;1.58;1.48;;;15.60;99.90;;;;;;5033146;28;20053;-80
2022/05/24 03:02:39;;;;;;;1.52;1.42;;;15.60;99.90;;;;;;5016886;28;20026;-82
2022/05/24 03:05:07;;;;;;;1.70;1.60;;;15.60;99.90;;;;;;5036519;28;20028;-80
2022/05/24 03:10:18;;;;;;;1.25;1.20;;;15.70;99.90;;;;;;5032131;28;20032;-79
2022/05/24 03:15:28;;;;;;;2.00;1.80;;;15.70;99.90;;;;;;5036856;28;20386;-80
2022/05/24 03:17:54;;;;;;;1.80;1.70;;;15.70;99.90;;;;;;5034801;28;20030;-81
2022/05/24 03:20:20;;;;;;;3.17;1.60;;;15.60;99.90;;;;;;5017200;28;20026;-80
2022/05/24 03:22:46;;;;;;;2.33;1.83;;;15.70;99.90;;;;;;5034904;28;20433;-78
2022/05/24 03:25:13;;;;;;;2.35;1.63;;;15.70;99.90;;;;;;5032361;28;20014;-79
2022/05/24 03:27:39;;;;;;;1.73;1.50;;;15.70;99.90;;;;;;5032205;28;20116;-80
2022/05/24 03:30:05;;;;;;;1.90;1.55;;;15.60;99.90;;;;;;5039191;28;20082;-79
2022/05/24 03:32:31;;;;;;;3.85;1.55;;;15.60;99.90;;;;;;5055734;28;20067;-79
2022/05/24 03:34:56;;;;;;;1.98;1.65;;;15.70;99.90;;;;;;5037819;28;20033;-80
2022/05/24 03:37:26;;;;;;;2.75;1.67;;;15.70;99.90;;;;;;5039225;28;20068;-79
2022/05/24 03:39:52;;;;;;;2.80;1.67;;;15.70;99.90;;;;;;5036333;28;20516;-78
2022/05/24 03:42:18;;;;;;;1.70;1.60;;;15.70;99.90;;;;;;5027697;28;20053;-78
2022/05/24 03:44:43;;;;;;;2.50;1.90;;;15.70;99.90;;;;;;5036942;28;20025;-78
2022/05/24 03:47:09;;;;;;;1.70;1.52;;;15.70;99.90;;;;;;5036457;28;20022;-79
2022/05/24 03:49:35;;;;;;;2.05;1.50;;;15.70;99.90;;;;;;5039868;28;20047;-79
2022/05/24 03:52:00;;;;;;;2.08;1.83;;;15.70;99.90;;;;;;5039115;28;20045;-78
2022/05/24 03:54:27;;;;;;;2.60;1.70;;;15.70;99.90;;;;;;5039962;28;20136;-79
2022/05/24 03:59:37;;;;;;;3.00;1.80;;;15.80;99.90;;;;;;5036109;28;20031;-77
2022/05/24 04:02:03;;;;;;;1.73;1.42;;;15.80;99.90;;;;;;5034928;28;20449;-77
2022/05/24 04:04:29;;;;;;;1.50;1.40;;;15.80;99.90;;;;;;5034724;28;20128;-78
2022/05/24 04:06:55;;;;;;;3.55;1.63;;;15.80;99.90;;;;;;5037159;28;20060;-79
2022/05/24 04:09:20;;;;;;;2.28;1.90;;;15.80;99.90;;;;;;5039785;28;20033;-79
2022/05/24 04:11:46;;;;;;;2.17;1.63;;;15.80;99.90;;;;;;5039574;28;20068;-80
2022/05/24 04:14:12;;;;;;;9.13;3.13;;;15.80;99.90;;;;;;5044073;28;20084;-79
2022/05/24 04:16:37;;;;;;;2.55;1.85;;;15.80;99.90;;;;;;5046729;28;20029;-81
2022/05/24 04:19:03;;;;;;;2.15;1.98;;;15.90;99.90;;;;;;5042683;28;20049;-81
2022/05/24 04:21:29;;;;;;;2.83;1.45;;;15.90;99.90;;;;;;5043010;28;20466;-79
2022/05/24 04:23:55;;;;;;;1.88;1.58;;;15.90;99.90;;;;;;5026479;28;20088;-81
2022/05/24 04:26:21;;;;;;;1.98;1.60;;;15.90;99.90;;;;;;5049352;28;20040;-81
2022/05/24 04:28:46;;;;;;;1.52;1.42;;;15.80;99.90;;;;;;5047002;28;20068;-81
2022/05/24 04:31:12;;;;;;;2.15;1.60;;;15.80;99.90;;;;;;5043367;28;20026;-79
2022/05/24 04:33:37;;;;;;;1.65;1.38;;;15.80;99.90;;;;;;5040945;28;20256;-80
2022/05/24 04:36:03;;;;;;;1.80;1.65;;;15.80;99.90;;;;;;5048965;28;20029;-81
2022/05/24 04:38:29;;;;;;;1.98;1.80;;;15.80;99.90;;;;;;5046610;28;20036;-84
2022/05/24 04:43:39;;;;;;;1.85;1.67;;;15.80;99.90;;;;;;5050495;28;20086;-83
2022/05/24 04:46:05;;;;;;;2.17;1.60;;;15.80;99.90;;;;;;5039782;28;20068;-82
2022/05/24 04:48:31;;;;;;;2.38;1.58;;;15.80;99.90;;;;;;5052353;28;20083;-82
2022/05/24 04:50:58;;;;;;;1.75;1.15;;;15.80;99.90;;;;;;5052304;28;20057;-84
2022/05/24 04:53:25;;;;;;;2.03;1.83;;;15.90;99.90;;;;;;5049753;28;20553;-81
2022/05/24 04:55:51;;;;;;;1.65;1.35;;;15.80;99.90;;;;;;5051810;28;20507;-83
2022/05/24 04:58:18;;;;;;;2.03;1.50;;;15.80;99.90;;;;;;5051283;28;20022;-83
2022/05/24 05:00:44;;;;;;;4.82;1.70;;;15.80;99.90;;;;;;5030795;28;20022;-84
2022/05/24 05:03:13;;;;;;;3.78;1.98;;;15.80;99.90;;;;;;5049439;28;20026;-85
2022/05/24 05:05:39;;;;;;;3.55;2.28;;;15.80;99.90;;;;;;5032315;28;20051;-81
2022/05/24 05:08:06;;;;;;;2.40;1.88;;;15.80;99.90;;;;;;5032304;28;20029;-81
2022/05/24 05:10:34;;;;;;;2.03;1.42;;;15.80;99.90;;;;;;5051857;28;20037;-81
2022/05/24 05:13:01;;;;;;;1.80;1.70;;;15.80;99.90;;;;;;5032102;28;20026;-84
2022/05/24 05:15:27;;;;;;;2.13;1.98;;;15.80;99.90;;;;;;5051117;28;20505;-83
2022/05/24 05:18:03;;;;;;;2.20;2.00;;;15.80;99.90;;;;;;5049895;28;20029;-81
2022/05/24 05:20:31;;;;;;;2.10;1.83;;;15.90;99.90;;;;;;5032210;28;20022;-85
2022/05/24 05:22:56;;;;;;;1.92;1.70;;;16.00;99.90;;;;;;5049145;28;20032;-81
2022/05/24 05:25:22;;;;;;;2.63;1.92;;;16.00;99.90;;;;;;5049441;28;20030;-81
2022/05/24 05:27:48;;;;;;;1.75;1.48;;;16.10;99.90;;;;;;5047780;28;20030;-82
2022/05/24 05:32:58;;;;;;;1.58;1.48;;;16.10;99.90;;;;;;5053676;28;20241;-85
2022/05/24 05:35:23;;;;;;;2.13;1.70;;;16.10;99.90;;;;;;5066073;23;20354;-80
2022/05/24 05:37:49;;;;;;;3.10;1.60;;;16.10;99.90;;;;;;5015099;28;20034;-79
2022/05/24 05:40:15;;;;;;;2.50;1.85;;;16.10;99.90;;;;;;5016328;28;20014;-80
2022/05/24 05:42:42;;;;;;;2.08;1.75;;;16.20;99.90;;;;;;5015730;28;20022;-80
2022/05/24 05:45:11;;;;;;;2.35;1.70;;;16.20;99.90;;;;;;5016193;28;20018;-79
2022/05/24 05:47:38;;;;;;;2.83;1.95;;;16.30;99.90;;;;;;5016485;28;20028;-80
2022/05/24 05:50:04;;;;;;;2.42;2.17;;;16.30;99.90;;;;;;5016325;28;20383;-80
2022/05/24 05:52:30;;;;;;;1.83;1.48;;;16.40;99.90;;;;;;5015772;28;20032;-79
2022/05/24 05:54:56;;;;;;;2.25;1.55;;;16.40;99.90;;;;;;5015333;28;20065;-80
2022/05/24 05:57:21;;;;;;;1.40;1.30;;;16.60;99.90;;;;;;5015835;28;20034;-81
2022/05/24 05:59:47;;;;;;;1.90;1.70;;;16.80;99.90;;;;;;5015412;28;20024;-80
2022/05/24 06:02:13;;;;;;;4.03;1.52;;;17.00;99.90;;;;;;5015792;28;20034;-81
2022/05/24 06:04:39;;;;;;;1.85;1.40;;;17.10;99.90;;;;;;5016432;28;20139;-80
2022/05/24 06:07:05;;;;;;;1.85;1.67;;;17.20;99.90;;;;;;5015797;28;20037;-81
2022/05/24 06:09:31;;;;;;;3.05;1.50;;;17.20;99.90;;;;;;5016054;28;20030;-80
2022/05/24 06:11:57;;;;;;;3.45;1.60;;;17.30;99.90;;;;;;5016756;28;20500;-80
2022/05/24 06:14:23;;;;;;;4.18;1.92;;;17.50;99.90;;;;;;5015540;28;20048;-81
2022/05/24 06:16:49;;;;;;;2.20;1.50;;;17.40;99.90;;;;;;5016196;28;20017;-81
2022/05/24 06:19:14;;;;;;;2.63;1.45;;;17.40;99.90;;;;;;5016914;28;20030;-80
2022/05/24 06:21:40;;;;;;;2.55;1.42;;;17.50;99.90;;;;;;5031454;28;20097;-80
2022/05/24 06:24:06;;;;;;;4.07;1.42;;;17.50;99.90;;;;;;5019929;28;20104;-83
2022/05/24 06:26:33;;;;;;;1.63;1.45;;;17.50;99.90;;;;;;5019762;28;20051;-83
2022/05/24 06:29:01;;;;;;;2.03;1.15;;;17.50;99.90;;;;;;5019515;28;20109;-83
2022/05/24 06:31:27;;;;;;;2.60;1.38;;;17.50;99.90;;;;;;5019410;28;20025;-82
2022/05/24 06:33:53;;;;;;;2.05;1.60;;;17.40;99.90;;;;;;5019112;28;20033;-83
2022/05/24 06:36:19;;;;;;;2.53;1.48;;;17.30;99.90;;;;;;5018854;28;20038;-83
2022/05/24 06:38:45;;;;;;;3.33;1.52;;;17.10;99.90;;;;;;5000261;28;20429;-82
2022/05/24 06:41:11;;;;;;;1.75;1.20;;;17.00;99.90;;;;;;5017938;28;20073;-85
2022/05/24 06:43:36;;;;;;;2.80;1.70;;;16.90;99.90;;;;;;5018768;28;20022;-85
2022/05/24 06:46:07;;;;;;;3.40;1.63;;;16.80;99.90;;;;;;5013715;28;20048;-83
2022/05/24 06:48:35;;;;;;;1.75;1.38;;;16.70;99.90;;;;;;5021418;28;20026;-82
2022/05/24 06:51:02;;;;;;;2.78;1.80;;;16.70;99.90;;;;;;5000682;28;20018;-83
2022/05/24 06:53:27;;;;;;;3.47;2.03;;;16.60;99.90;;;;;;5017708;28;20231;-83
2022/05/24 06:55:53;;;;;;;2.28;1.88;;;16.60;99.90;;;;;;5018551;28;20029;-83
2022/05/24 06:58:19;;;;;;;2.45;1.52;;;16.60;99.90;;;;;;5018517;28;20026;-83
2022/05/24 07:03:29;;;;;;;1.65;1.55;;;16.70;99.90;;;;;;5028586;28;20098;-83
2022/05/24 07:05:54;;;;;;;2.60;1.63;;;16.80;99.90;;;;;;5033917;28;20030;-83
2022/05/24 07:08:20;;;;;;;4.78;1.65;;;16.80;99.90;;;;;;5032948;28;20030;-82
2022/05/24 07:10:46;;;;;;;3.35;1.73;;;16.70;99.90;;;;;;5031385;28;20032;-83
2022/05/24 07:13:16;;;;;;;4.03;1.92;;;16.70;99.90;;;;;;5032133;28;20030;-83
2022/05/24 07:15:42;;;;;;;3.45;2.17;;;16.60;99.90;;;;;;5035355;28;20101;-82
2022/05/24 07:18:08;;;;;;;3.05;2.03;;;16.60;99.90;;;;;;5024140;28;20022;-81
2022/05/24 07:20:36;;;;;;;2.47;1.80;;;16.60;99.90;;;;;;5025584;28;20022;-83
2022/05/24 07:23:24;;;;;;;2.80;1.98;;;16.50;99.90;;;;;;5018870;28;20022;-83
2022/05/24 07:25:50;;;;;;;3.38;1.85;;;16.60;99.90;;;;;;5031030;28;20045;-83
2022/05/24 07:28:17;;;;;;;4.72;1.95;;;16.60;99.90;;;;;;5023185;28;20052;-82
2022/05/24 07:30:44;;;;;;;4.07;1.73;;;16.60;99.90;;;;;;5026835;28;20107;-82
2022/05/24 07:33:10;;;;;;;5.50;2.28;;;16.50;99.90;;;;;;5022196;28;20427;-83
2022/05/24 07:35:37;;;;;;;3.30;2.13;;;16.40;99.90;;;;;;5020105;28;20030;-82
2022/05/24 07:38:07;;;;;;;2.60;2.00;;;16.40;99.90;;;;;;5018803;28;20030;-82
2022/05/24 07:46:10;;;;;;;2.92;2.53;;;16.30;99.90;;;;;;5023846;28;20040;-81
2022/05/24 07:48:37;;;;;;;3.35;2.50;;;16.20;99.90;;;;;;5022028;28;20048;-83
2022/05/24 07:51:04;;;;;;;6.80;2.22;;;16.10;99.90;;;;;;5021118;28;20078;-83
2022/05/24 07:53:31;;;;;;;4.03;2.33;;;16.00;99.90;;;;;;5020749;28;20033;-82
2022/05/24 07:55:57;;;;;;;5.45;2.40;;;15.90;99.90;;;;;;5021218;28;20463;-82
2022/05/24 07:58:24;;;;;;;4.13;1.73;;;15.80;99.90;;;;;;5021303;28;20034;-82
2022/05/24 08:00:50;;;;;;;3.95;2.00;;;15.80;99.90;;;;;;5020748;28;20366;-82
2022/05/24 08:03:16;;;;;;;4.30;2.45;;;15.70;99.90;;;;;;5021896;28;20034;-81
2022/05/24 08:05:42;;;;;;;5.85;3.60;;;15.60;99.90;;;;;;5022993;28;20037;-82
2022/05/24 08:08:09;;;;;;;4.97;2.42;;;15.50;99.90;;;;;;5024910;28;20025;-84
2022/05/24 08:10:36;;;;;;;4.68;2.33;;;15.50;99.90;;;;;;5022698;28;20073;-82
2022/05/24 08:13:14;;;;;;;4.72;2.03;;;15.40;99.90;;;;;;5020562;28;20037;-83
2022/05/24 08:15:41;;;;;;;1.50;1.40;;;15.50;99.90;;;;;;5024113;28;20077;-83
2022/05/24 08:18:08;;;;;;;4.97;2.03;;;15.50;99.90;;;;;;5005554;28;20022;-83
2022/05/24 08:20:35;;;;;;;3.88;1.75;;;15.60;99.90;;;;;;5004463;28;20022;-83
2022/05/24 08:23:01;;;;;;;2.65;1.67;;;15.70;99.90;;;;;;5022199;28;20414;-81
2022/05/24 08:25:28;;;;;;;1.70;1.60;;;15.70;99.90;;;;;;5003444;28;20022;-80
2022/05/24 08:27:54;;;;;;;3.83;2.30;;;15.70;99.90;;;;;;5021563;28;20052;-80
2022/05/24 08:30:21;;;;;;;5.18;2.03;;;15.80;99.90;;;;;;5021742;28;20151;-80
2022/05/24 08:32:47;;;;;;;5.88;2.45;;;15.70;99.90;;;;;;5022334;28;20040;-80
2022/05/24 08:35:14;;;;;;;2.45;1.75;;;15.70;99.90;;;;;;5005082;28;20615;-81
2022/05/24 08:37:43;;;;;;;5.30;2.45;;;15.60;99.90;;;;;;5023492;28;20022;-80
2022/05/24 08:40:11;;;;;;;6.68;2.50;;;15.60;99.90;;;;;;5024418;28;20029;-82
2022/05/24 08:42:52;;;;;;;6.10;1.73;;;15.60;99.90;;;;;;5017857;28;20034;-81
2022/05/24 08:48:29;;;;;;;6.30;1.90;;;15.70;99.90;;;;;;5022840;28;20033;-80
2022/05/24 08:51:15;;;;;;;6.63;1.77;;;15.70;99.90;;;;;;5025549;28;20030;-80
2022/05/24 08:53:47;;;;;;;6.45;1.95;;;15.90;99.90;;;;;;5027910;28;20038;-80
2022/05/24 08:56:17;;;;;;;2.13;1.57;;;16.10;99.90;;;;;;5027157;28;20014;-80
2022/05/24 08:58:50;;;;;;;4.50;2.10;;;16.30;99.90;;;;;;5016212;28;20166;-81
2022/05/24 09:01:29;;;;;;;1.58;1.30;;;16.50;99.90;;;;;;5024261;28;20037;-79
2022/05/24 09:03:55;;;;;;;2.58;1.42;;;16.70;99.90;;;;;;5005488;28;20034;-80
2022/05/24 09:06:44;;;;;;;3.47;1.60;;;16.90;99.90;;;;;;4987780;28;20140;-81
2022/05/24 09:09:20;;;;;;;2.63;0.98;;;16.80;99.90;;;;;;5005245;28;20026;-81
2022/05/24 09:12:10;;;;;;;3.53;2.10;;;16.80;99.90;;;;;;5004882;28;20023;-82
2022/05/24 09:15:07;;;;;;;1.92;1.48;;;16.60;99.90;;;;;;5034848;28;20030;-81
2022/05/24 09:18:03;;;;;;;1.13;1.10;;;16.40;99.90;;;;;;5017457;28;20121;-81
2022/05/24 09:20:40;;;;;;;1.40;1.30;;;16.30;99.90;;;;;;5029026;28;20117;-79
2022/05/24 09:23:41;;;;;;;4.05;1.42;;;16.30;99.90;;;;;;5022481;28;20014;-82
2022/05/24 09:26:12;;;;;;;2.88;1.42;;;16.30;99.90;;;;;;5002024;28;20018;-81
2022/05/24 09:28:55;;;;;;;1.35;1.25;;;16.40;99.90;;;;;;5017880;28;20132;-82
2022/05/24 09:31:38;;;;;;;;;;;16.50;99.90;;;;;;5022615;28;20041;-81
2022/05/24 09:34:28;;;;;;;3.10;1.65;;;16.60;99.90;;;;;;5020862;28;19920;-81
2022/05/24 09:36:58;;;;;;;2.95;1.20;;;16.70;99.90;;;;;;5020807;28;20034;-80
2022/05/24 09:39:35;;;;;;;1.75;1.15;;;16.80;99.90;;;;;;5020344;28;20418;-79
2022/05/24 09:42:02;;;;;;;5.03;1.30;;;16.70;99.90;;;;;;5020618;28;20024;-79
2022/05/24 09:44:42;;;;;;;3.00;1.20;;;16.70;99.90;;;;;;5002394;28;20030;-79
2022/05/24 09:47:39;;;;;;;2.40;1.30;;;16.70;99.90;;;;;;5022398;28;20185;-80
2022/05/24 09:50:36;;;;;;;2.67;1.17;;;16.80;99.90;;;;;;5014704;28;20092;-82
2022/05/24 09:53:20;;;;;;;3.17;1.40;;;16.80;99.90;;;;;;5019335;28;20088;-82
2022/05/24 09:55:51;;;;;;;3.83;1.25;;;16.70;99.90;;;;;;5000134;28;20055;-81
2022/05/24 09:58:28;;;;;;;2.40;1.08;;;16.70;99.90;;;;;;5016033;28;20040;-82
2022/05/24 10:01:00;;;;;;;1.70;1.13;;;16.70;99.90;;;;;;5011790;28;20459;-81
2022/05/24 10:03:30;;;;;;;4.22;1.15;;;16.60;99.90;;;;;;5016054;28;20029;-81
2022/05/24 10:06:05;;;;;;;1.63;1.17;;;16.70;99.90;;;;;;5016974;28;20022;-78
2022/05/24 10:08:36;;;;;;;1.30;1.08;;;16.90;99.90;;;;;;5016630;28;20068;-80
2022/05/24 10:11:03;;;;;;;1.13;0.98;;;17.00;99.90;;;;;;4999320;28;20025;-81
2022/05/24 10:13:39;;;;;;;2.83;1.17;;;17.20;99.90;;;;;;4999090;28;20037;-79
2022/05/24 10:16:18;;;;;;;2.03;1.05;;;17.20;99.90;;;;;;4998779;28;20018;-81
2022/05/24 10:19:15;;;;;;;1.17;1.02;;;17.30;99.90;;;;;;5015993;28;20056;-80
2022/05/24 10:21:56;;;;;;;1.58;0.88;;;17.40;99.90;;;;;;5015094;28;20026;-82
2022/05/24 10:24:28;;;;;;;1.25;0.90;;;17.60;99.90;;;;;;5014408;28;20490;-80
2022/05/24 10:27:04;;;;;;;1.48;0.98;;;17.80;99.90;;;;;;5016944;28;20494;-81
2022/05/24 10:29:38;;;;;;;3.45;1.50;;;18.10;99.90;;;;;;5017118;28;20521;-82
2022/05/24 10:38:17;;;;;;;2.05;1.13;;;18.40;98.90;;;;;;5017223;28;20498;-82
2022/05/24 10:38:33;;;;;;;2.58;0.90;;;18.70;98.10;;;;;;5019427;28;20044;-83
2022/05/24 10:41:20;;;;;;;2.95;0.80;;;18.50;97.10;;;;;;5021184;28;20056;-84
2022/05/24 10:43:59;;;;;;;1.58;0.88;;;18.30;97.30;;;;;;5022293;28;20086;-83
2022/05/24 10:46:31;;;;;;;0.90;0.80;;;18.10;97.40;;;;;;5020565;28;20044;-83
2022/05/24 10:49:02;;;;;;;;;;;17.90;97.70;;;;;;5027861;28;20018;-81
2022/05/24 10:51:56;;;;;;;1.70;1.00;;;17.80;97.00;;;;;;5031056;28;19932;-82
2022/05/24 10:54:36;;;;;;;1.13;1.00;;;17.70;97.40;;;;;;5016127;28;20081;-79
2022/05/24 10:57:15;;;;;;;1.48;0.90;;;17.80;98.10;;;;;;5011663;28;20014;-79
2022/05/24 11:00:06;;;;;;;1.40;0.80;;;17.90;98.00;;;;;;5039073;28;20018;-80
2022/05/24 11:02:57;;;;;;;1.13;1.00;;;18.10;98.30;;;;;;5019136;28;20054;-80
2022/05/24 11:05:44;;;;;;;1.53;0.73;;;18.30;97.80;;;;;;5020360;28;20022;-81
2022/05/24 11:08:46;;;;;;;2.03;1.05;;;18.30;97.50;;;;;;5017041;28;20030;-80
2022/05/24 11:11:41;;;;;;;1.20;1.10;;;18.40;97.70;;;;;;5002410;28;20026;-80
2022/05/24 11:14:20;;;;;;;0.82;0.82;;;18.50;97.50;;;;;;5015967;28;20041;-81
2022/05/24 11:16:48;;;;;;;1.30;0.88;;;18.50;96.80;;;;;;4998291;28;20459;-82
2022/05/24 11:19:16;;;;;;;1.65;0.82;;;18.60;96.90;;;;;;5016658;28;20414;-82
2022/05/24 11:21:58;;;;;;;1.88;0.80;;;18.80;97.10;;;;;;5017557;28;20046;-81
2022/05/24 11:24:41;;;;;;;1.38;0.80;;;19.00;96.70;;;;;;5015913;28;20038;-82
2022/05/24 11:27:11;;;;;;;0.90;0.80;;;19.00;96.10;;;;;;5016388;28;20053;-80
2022/05/24 11:29:42;;;;;;;1.80;1.00;;;18.70;95.80;;;;;;5017993;28;20049;-84
2022/05/24 11:32:10;;;;;;;2.72;0.90;;;18.50;96.30;;;;;;5031829;28;20026;-84
2022/05/24 11:34:49;;;;;;;1.35;1.15;;;18.30;96.80;;;;;;5034606;28;20041;-82
2022/05/24 11:37:25;;;;;;;1.60;1.15;;;18.10;97.10;;;;;;5017869;28;20509;-86
2022/05/24 11:39:52;;;;;;;4.85;1.20;;;18.00;97.40;;;;;;5019404;28;20022;-82
2022/05/24 11:42:43;;;;;;;1.42;0.85;;;18.10;97.30;;;;;;5002329;28;20032;-82
2022/05/24 11:45:28;;;;;;;3.25;1.20;;;18.10;97.40;;;;;;5002718;28;20053;-85
2022/05/24 11:48:00;;;;;;;1.20;1.10;;;18.00;96.90;;;;;;5019127;28;20034;-85
2022/05/24 11:50:39;;;;;;;2.17;1.35;;;17.90;97.40;;;;;;5020985;28;20030;-86
2022/05/24 11:53:07;;;;;;;1.60;1.42;;;17.80;98.30;;;;;;5017977;28;20033;-84
2022/05/24 11:56:01;;;;;;;1.88;1.05;;;17.80;98.40;;;;;;5018372;28;20029;-84
2022/05/24 11:58:30;;;;;;;1.20;0.80;;;17.70;98.70;;;;;;5014507;28;20049;-85
2022/05/24 12:00:58;;;;;;;1.30;0.95;;;17.70;99.20;;;;;;5023752;28;20018;-85
2022/05/24 12:09:36;;;;;;;0.77;0.68;;;18.30;98.80;;;;;;5026686;28;20041;-84
2022/05/24 12:12:28;;;;;;;0.80;0.77;;;18.60;98.40;;;;;;5004762;28;20097;-84
2022/05/24 12:15:13;;;;;;;;;;;18.70;97.00;;;;;;5025003;28;20036;-83
2022/05/24 12:17:39;;;;;;;3.03;1.08;;;18.70;96.70;;;;;;5023544;28;20262;-83
2022/05/24 12:20:34;;;;;;;0.93;0.80;;;18.40;97.00;;;;;;5006526;28;20129;-82
2022/05/24 12:23:21;;;;;;;1.90;1.23;;;18.00;97.10;;;;;;5024413;28;20030;-82
2022/05/24 12:26:10;;;;;;;1.00;0.77;;;17.60;97.40;;;;;;5005675;28;20101;-83
2022/05/24 12:28:38;;;;;;;2.05;1.05;;;17.30;98.10;;;;;;5011610;28;20056;-83
2022/05/24 12:31:07;;;;;;;1.17;0.60;;;16.20;99.90;;;;;;5017755;28;20053;-82
2022/05/24 12:34:00;;;;;;;2.67;0.70;;;15.20;99.90;;;;;;5036173;28;20030;-81
2022/05/24 12:36:31;;;;;;;1.05;0.60;;;14.30;99.90;;;;;;5034040;28;20037;-82
2022/05/24 12:39:09;;;;;;;1.60;0.80;;;13.80;99.90;;;;;;5025873;28;20087;-83
2022/05/24 12:41:43;;;;;;;1.92;1.20;;;13.60;99.90;;;;;;5024841;28;20029;-83
2022/05/24 12:44:45;;;;;;;2.70;1.23;;;13.50;99.90;;;;;;5024751;28;20029;-83
2022/05/24 12:47:11;;;;;;;1.70;0.97;;;13.50;99.90;;;;;;5024248;28;20051;-84
2022/05/24 12:49:48;;;;;;;2.05;0.95;;;13.50;99.90;;;;;;5023504;28;20325;-83
2022/05/24 12:52:24;;;;;;;1.23;1.08;;;13.60;99.90;;;;;;5023407;28;20022;-83
2022/05/24 12:54:56;;;;;;;1.77;0.95;;;13.80;99.90;;;;;;5021625;28;20018;-83
2022/05/24 12:57:28;;;;;;;3.55;1.00;;;13.80;99.90;;;;;;5021055;28;20030;-85
2022/05/24 13:00:07;;;;;;;1.83;0.90;;;14.00;99.90;;;;;;5021448;28;20048;-82
2022/05/24 13:02:54;;;;;;;2.00;1.00;;;14.40;99.90;;;;;;5007371;28;20089;-82
2022/05/24 13:05:28;;;;;;;1.65;0.82;;;14.60;99.90;;;;;;5019128;28;20056;-85
2022/05/24 13:07:57;;;;;;;0.75;0.63;;;14.90;99.90;;;;;;5019536;28;20044;-85
2022/05/24 13:10:27;;;;;;;1.20;0.90;;;15.10;99.90;;;;;;5018902;28;20164;-85
2022/05/24 13:13:30;;;;;;;0.60;0.60;;;15.10;99.90;;;;;;5000292;28;20037;-85
2022/05/24 13:16:04;;;;;;;1.27;1.10;;;15.20;99.90;;;;;;5015788;28;20045;-82
2022/05/24 13:18:33;;;;;;;0.90;0.90;;;15.20;99.90;;;;;;5018954;28;20029;-84
2022/05/24 13:21:06;;;;;;;0.80;0.80;;;15.10;99.90;;;;;;5018584;28;20683;-85
2022/05/24 13:23:37;;;;;;;1.10;1.00;;;15.00;99.90;;;;;;5000873;28;20022;-84
2022/05/24 13:26:06;;;;;;;3.33;1.35;;;14.90;99.90;;;;;;5022636;28;20037;-83
2022/05/24 13:28:46;;;;;;;1.05;1.02;;;14.80;99.90;;;;;;5021807;28;20129;-84
2022/05/24 13:34:13;;;;;;;0.70;0.70;;;14.60;99.90;;;;;;5024356;28;20041;-83
2022/05/24 13:36:43;;;;;;;1.13;1.13;;;14.60;99.90;;;;;;5023533;28;20025;-83
2022/05/24 13:39:16;;;;;;;1.02;0.90;;;14.60;99.90;;;;;;5022172;28;20020;-84
2022/05/24 13:41:56;;;;;;;1.50;1.40;;;14.70;99.90;;;;;;5023879;28;20036;-83
2022/05/24 13:44:31;;;;;;;2.25;0.98;;;14.90;99.90;;;;;;5004221;28;20026;-84
2022/05/24 13:47:02;;;;;;;2.83;0.90;;;15.10;99.90;;;;;;5021132;28;20029;-84
2022/05/24 13:49:38;;;;;;;2.67;1.10;;;15.20;99.90;;;;;;5020991;28;20033;-83
2022/05/24 13:52:41;;;;;;;2.38;1.27;;;15.40;99.90;;;;;;5004951;28;20021;-83
2022/05/24 13:55:12;;;;;;;;;;;15.60;99.90;;;;;;5023454;28;20034;-85
2022/05/24 13:57:58;;;;;;;0.98;0.75;;;16.00;99.90;;;;;;5020774;28;20595;-85